Time;durP1;ratioP1;P1;durP2;ratioP2;P2;SDS_P1;SDS_P2;PMS_P1;PMS_P2;Temp;Humidity;BMP_temperature;BMP_pressure;BME280_temperature;BME280_humidity;BME280_pressure;Samples;Min_cycle;Max_cycle;Signal;HPM_P1;HPM_P2
2023/10/09 00:01:44;;;;;;;25.90;10.07;;;;;;;;;;5041773;28;20053;-62
2023/10/09 00:04:11;;;;;;;33.67;13.10;;;;;;;;;;5012783;28;20137;-63
2023/10/09 00:06:38;;;;;;;42.92;16.77;;;;;;;;;;5022722;28;20057;-63
2023/10/09 00:09:17;;;;;;;52.67;21.80;;;;;;;;;;5016606;28;20065;-62
2023/10/09 00:11:44;;;;;;;55.95;24.13;;;;;;;;;;5020395;28;20099;-62
2023/10/09 00:14:12;;;;;;;36.47;15.70;;;;;;;;;;5009477;28;20085;-61
2023/10/09 00:16:45;;;;;;;33.05;12.63;;;;;;;;;;5020837;28;20065;-62
2023/10/09 00:19:17;;;;;;;31.20;11.77;;;;;;;;;;5008864;28;20041;-60
2023/10/09 00:21:45;;;;;;;30.92;11.68;;;;;;;;;;5021107;28;20042;-59
2023/10/09 00:24:16;;;;;;;31.50;12.10;;;;;;;;;;5007514;28;20060;-59
2023/10/09 00:26:45;;;;;;;29.02;11.30;;;;;;;;;;5021549;28;20300;-60
2023/10/09 00:29:21;;;;;;;26.45;10.88;;;;;;;;;;5016873;28;20081;-62
2023/10/09 00:31:54;;;;;;;28.10;11.18;;;;;;;;;;5021437;28;20088;-61
2023/10/09 00:34:26;;;;;;;29.25;10.60;;;;;;;;;;5018355;28;20049;-62
2023/10/09 00:36:53;;;;;;;30.85;11.32;;;;;;;;;;5019517;28;20056;-63
2023/10/09 00:39:40;;;;;;;27.65;9.90;;;;;;;;;;5023196;28;20107;-62
2023/10/09 00:42:07;;;;;;;25.05;10.32;;;;;;;;;;5021152;28;20061;-62
2023/10/09 00:44:38;;;;;;;27.27;10.77;;;;;;;;;;5020002;28;20054;-62
2023/10/09 00:47:20;;;;;;;27.15;11.00;;;;;;;;;;5015745;28;20068;-59
2023/10/09 00:49:50;;;;;;;26.67;10.57;;;;;;;;;;5021825;28;20064;-59
2023/10/09 00:52:23;;;;;;;24.15;10.45;;;;;;;;;;5019591;28;20049;-59
2023/10/09 00:54:51;;;;;;;24.05;9.60;;;;;;;;;;4997125;28;20140;-60
2023/10/09 00:57:24;;;;;;;25.48;9.65;;;;;;;;;;4995540;28;20096;-62
2023/10/09 00:59:59;;;;;;;25.52;9.48;;;;;;;;;;5001366;28;20054;-59
2023/10/09 01:02:35;;;;;;;23.92;9.88;;;;;;;;;;5018713;28;20058;-59
2023/10/09 01:05:19;;;;;;;23.20;9.38;;;;;;;;;;5035402;28;20068;-59
2023/10/09 01:07:48;;;;;;;23.25;8.80;;;;;;;;;;5041098;28;20064;-59
2023/10/09 01:10:18;;;;;;;24.42;9.80;;;;;;;;;;5040056;28;20134;-60
2023/10/09 01:12:46;;;;;;;25.08;9.98;;;;;;;;;;5035841;28;20052;-60
2023/10/09 01:15:35;;;;;;;30.60;10.55;;;;;;;;;;5040844;28;20049;-60
2023/10/09 01:18:07;;;;;;;27.77;10.13;;;;;;;;;;5038690;28;20126;-60
2023/10/09 01:20:41;;;;;;;26.67;10.35;;;;;;;;;;5036889;28;20047;-60
2023/10/09 01:23:11;;;;;;;31.25;9.68;;;;;;;;;;5020649;28;20160;-60
2023/10/09 01:25:44;;;;;;;29.60;10.05;;;;;;;;;;5002138;28;20054;-60
2023/10/09 01:28:15;;;;;;;24.73;9.65;;;;;;;;;;5001547;28;20078;-60
2023/10/09 01:30:44;;;;;;;23.98;9.50;;;;;;;;;;5013557;28;20132;-60
2023/10/09 01:33:27;;;;;;;28.23;9.52;;;;;;;;;;5016785;28;20135;-60
2023/10/09 01:35:58;;;;;;;26.05;10.10;;;;;;;;;;5020575;28;20076;-60
2023/10/09 01:38:40;;;;;;;29.33;10.02;;;;;;;;;;5022305;28;20056;-60
2023/10/09 01:41:15;;;;;;;25.35;10.48;;;;;;;;;;5013813;28;20096;-61
2023/10/09 01:43:45;;;;;;;26.48;9.93;;;;;;;;;;5031370;28;20061;-60
2023/10/09 01:46:16;;;;;;;31.02;10.23;;;;;;;;;;5019761;28;20057;-60
2023/10/09 01:48:46;;;;;;;23.25;9.20;;;;;;;;;;5027555;28;20049;-60
2023/10/09 01:51:17;;;;;;;23.70;9.57;;;;;;;;;;5035909;28;20059;-59
2023/10/09 01:53:47;;;;;;;26.38;9.85;;;;;;;;;;5019147;28;20053;-60
2023/10/09 01:56:16;;;;;;;27.65;10.20;;;;;;;;;;5000314;28;20144;-60
2023/10/09 01:58:47;;;;;;;24.13;10.00;;;;;;;;;;5021693;28;20141;-60
2023/10/09 02:01:14;;;;;;;20.50;9.82;;;;;;;;;;5014307;28;20337;-60
2023/10/09 02:03:43;;;;;;;23.13;9.87;;;;;;;;;;4981987;28;20057;-60
2023/10/09 02:06:24;;;;;;;22.80;9.30;;;;;;;;;;5019468;28;20361;-60
2023/10/09 02:08:56;;;;;;;29.58;9.82;;;;;;;;;;5031617;28;20147;-60
2023/10/09 02:11:36;;;;;;;23.88;10.05;;;;;;;;;;5043799;28;20092;-60
2023/10/09 02:14:15;;;;;;;29.67;10.32;;;;;;;;;;5032541;28;20069;-61
2023/10/09 02:16:43;;;;;;;24.85;9.70;;;;;;;;;;5018132;28;20147;-60
2023/10/09 02:19:28;;;;;;;25.90;9.50;;;;;;;;;;5018651;28;20053;-60
2023/10/09 02:21:56;;;;;;;23.77;8.80;;;;;;;;;;5034854;28;20060;-61
2023/10/09 02:24:41;;;;;;;28.23;10.33;;;;;;;;;;5028276;28;20060;-60
2023/10/09 02:27:08;;;;;;;28.88;9.10;;;;;;;;;;5040544;28;20076;-60
2023/10/09 02:29:38;;;;;;;23.67;9.38;;;;;;;;;;5041237;28;20053;-60
2023/10/09 02:32:17;;;;;;;22.83;9.60;;;;;;;;;;5039982;28;20061;-60
2023/10/09 02:34:46;;;;;;;27.88;9.95;;;;;;;;;;5034222;28;20056;-60
2023/10/09 02:37:14;;;;;;;;;;;;;;;;;;5043736;28;20114;-60
2023/10/09 02:39:47;;;;;;;23.30;9.52;;;;;;;;;;5043436;28;19924;-60
2023/10/09 02:42:23;;;;;;;26.95;9.55;;;;;;;;;;5042853;28;20053;-61
2023/10/09 02:44:51;;;;;;;29.05;10.75;;;;;;;;;;5050867;28;20085;-60
2023/10/09 02:47:20;;;;;;;28.92;10.15;;;;;;;;;;5022708;28;20277;-60
2023/10/09 02:49:50;;;;;;;25.33;10.15;;;;;;;;;;5025198;28;20260;-60
2023/10/09 02:52:24;;;;;;;27.73;10.80;;;;;;;;;;5020532;28;20146;-60
2023/10/09 02:54:59;;;;;;;21.98;9.63;;;;;;;;;;5015575;28;20169;-60
2023/10/09 02:57:35;;;;;;;22.38;9.95;;;;;;;;;;5019506;28;20128;-60
2023/10/09 03:00:03;;;;;;;20.60;9.20;;;;;;;;;;5004307;28;20089;-59
2023/10/09 03:02:31;;;;;;;19.92;9.65;;;;;;;;;;5001484;28;20105;-60
2023/10/09 03:04:59;;;;;;;25.92;9.98;;;;;;;;;;5001146;28;20076;-60
2023/10/09 03:07:26;;;;;;;25.80;10.68;;;;;;;;;;5005249;28;20054;-59
2023/10/09 03:09:55;;;;;;;25.48;9.60;;;;;;;;;;5002817;28;20080;-59
2023/10/09 03:12:26;;;;;;;19.35;9.38;;;;;;;;;;5004873;28;20080;-60
2023/10/09 03:14:54;;;;;;;25.08;9.55;;;;;;;;;;5018964;28;20136;-59
2023/10/09 03:17:22;;;;;;;22.42;9.65;;;;;;;;;;5024351;28;20113;-59
2023/10/09 03:19:49;;;;;;;27.05;10.30;;;;;;;;;;5021574;28;20049;-59
2023/10/09 03:22:15;;;;;;;31.25;10.73;;;;;;;;;;5020150;28;20057;-60
2023/10/09 03:24:44;;;;;;;20.17;9.13;;;;;;;;;;5014613;28;20057;-60
2023/10/09 03:27:14;;;;;;;24.40;10.27;;;;;;;;;;5039026;28;20107;-60
2023/10/09 03:29:44;;;;;;;28.98;9.63;;;;;;;;;;5023710;28;20144;-60
2023/10/09 03:32:11;;;;;;;21.98;9.50;;;;;;;;;;5024125;28;20057;-59
2023/10/09 03:34:38;;;;;;;22.48;8.55;;;;;;;;;;5020586;28;20053;-60
2023/10/09 03:37:06;;;;;;;19.20;8.82;;;;;;;;;;5021892;28;20053;-59
2023/10/09 03:39:38;;;;;;;22.40;10.32;;;;;;;;;;5038831;28;20115;-60
2023/10/09 03:42:05;;;;;;;19.88;9.00;;;;;;;;;;5024402;28;20137;-60
2023/10/09 03:44:35;;;;;;;27.60;10.45;;;;;;;;;;5009895;28;20064;-60
2023/10/09 03:47:02;;;;;;;24.60;9.85;;;;;;;;;;5022889;28;20052;-60
2023/10/09 03:49:29;;;;;;;21.02;8.75;;;;;;;;;;5038425;28;20053;-59
2023/10/09 03:51:56;;;;;;;19.92;9.25;;;;;;;;;;5024211;28;20057;-60
2023/10/09 03:54:24;;;;;;;23.75;9.02;;;;;;;;;;5026280;28;20056;-60
2023/10/09 03:56:51;;;;;;;22.67;9.37;;;;;;;;;;5063967;28;20116;-60
2023/10/09 03:59:19;;;;;;;20.52;8.68;;;;;;;;;;5068026;28;20514;-60
2023/10/09 04:01:48;;;;;;;19.52;8.75;;;;;;;;;;5080280;28;20102;-60
2023/10/09 04:04:15;;;;;;;26.13;8.60;;;;;;;;;;5034806;28;20053;-60
2023/10/09 04:06:42;;;;;;;24.05;9.07;;;;;;;;;;5019348;28;20108;-60
2023/10/09 04:09:27;;;;;;;21.52;8.80;;;;;;;;;;5024646;28;20085;-59
2023/10/09 04:12:19;;;;;;;23.13;8.23;;;;;;;;;;5023396;28;20147;-60
2023/10/09 04:14:53;;;;;;;19.65;8.35;;;;;;;;;;5029159;28;20118;-59
2023/10/09 04:23:04;;;;;;;23.15;8.30;;;;;;;;;;4994843;28;20075;-60
2023/10/09 04:25:41;;;;;;;20.05;7.93;;;;;;;;;;5036281;28;20063;-60
2023/10/09 04:28:11;;;;;;;15.23;7.95;;;;;;;;;;5043061;28;20075;-60
2023/10/09 04:30:42;;;;;;;18.90;7.85;;;;;;;;;;5052187;28;20065;-60
2023/10/09 04:33:27;;;;;;;20.33;8.98;;;;;;;;;;5040748;28;20053;-60
2023/10/09 04:38:37;;;;;;;20.40;8.40;;;;;;;;;;5033982;28;20060;-61
2023/10/09 04:41:05;;;;;;;19.67;8.32;;;;;;;;;;5041374;28;20148;-60
2023/10/09 04:43:33;;;;;;;18.35;7.63;;;;;;;;;;5046522;28;20045;-60
2023/10/09 04:46:09;;;;;;;43.45;18.63;;;;;;;;;;5036281;28;20064;-60
2023/10/09 04:48:45;;;;;;;26.90;11.18;;;;;;;;;;5014680;28;20080;-61
2023/10/09 04:51:34;;;;;;;20.77;8.10;;;;;;;;;;5034767;28;20089;-60
2023/10/09 04:54:12;;;;;;;20.55;7.95;;;;;;;;;;5017943;28;20057;-60
2023/10/09 04:56:51;;;;;;;18.73;7.70;;;;;;;;;;5031791;28;20239;-60
2023/10/09 04:59:19;;;;;;;19.67;7.97;;;;;;;;;;5040502;28;20065;-61
2023/10/09 05:01:57;;;;;;;18.95;8.15;;;;;;;;;;5040385;28;20060;-61
2023/10/09 05:04:34;;;;;;;17.52;7.90;;;;;;;;;;5026793;28;20160;-61
2023/10/09 05:07:22;;;;;;;21.48;7.40;;;;;;;;;;5039865;28;20068;-60
2023/10/09 05:09:55;;;;;;;17.95;7.10;;;;;;;;;;5040714;28;20073;-60
2023/10/09 05:12:26;;;;;;;29.13;10.43;;;;;;;;;;5021394;28;20053;-62
2023/10/09 05:15:08;;;;;;;25.83;11.55;;;;;;;;;;5031444;28;20104;-62
2023/10/09 05:17:35;;;;;;;18.50;7.97;;;;;;;;;;5058186;28;20049;-60
2023/10/09 05:22:58;;;;;;;19.15;8.13;;;;;;;;;;5037644;28;21159;-61
2023/10/09 05:25:53;;;;;;;26.58;9.43;;;;;;;;;;5021172;28;20053;-60
2023/10/09 05:28:31;;;;;;;18.13;7.97;;;;;;;;;;5013055;28;20087;-60
2023/10/09 05:31:06;;;;;;;19.45;7.70;;;;;;;;;;5019716;28;20056;-60
2023/10/09 05:33:33;;;;;;;21.35;8.05;;;;;;;;;;5018835;28;20068;-60
2023/10/09 05:36:17;;;;;;;49.97;21.00;;;;;;;;;;5005833;28;20053;-60
2023/10/09 05:38:46;;;;;;;22.83;10.02;;;;;;;;;;5018344;28;20124;-59
2023/10/09 05:46:48;;;;;;;22.75;7.65;;;;;;;;;;4995604;28;20061;-59
2023/10/09 05:49:19;;;;;;;17.17;7.85;;;;;;;;;;4997305;28;20073;-59
2023/10/09 05:51:53;;;;;;;19.67;8.13;;;;;;;;;;4998017;28;20056;-61
2023/10/09 06:08:06;;;;;;;23.83;8.32;;;;;;;;;;5016507;28;20159;-59
2023/10/09 06:10:41;;;;;;;20.30;7.72;;;;;;;;;;5016135;28;20064;-59
2023/10/09 06:13:37;;;;;;;17.67;8.25;;;;;;;;;;5018795;28;20545;-59
2023/10/09 06:18:41;;;;;;;18.17;7.75;;;;;;;;;;5028100;28;20053;-60
2023/10/09 06:21:09;;;;;;;;;;;;;;;;;;5056574;28;20057;-60
2023/10/09 06:26:25;;;;;;;16.55;7.22;;;;;;;;;;5035589;28;20061;-61
2023/10/09 06:29:14;;;;;;;17.88;7.40;;;;;;;;;;5038123;28;20068;-60
2023/10/09 06:32:16;;;;;;;17.55;7.38;;;;;;;;;;5040230;28;20084;-60
2023/10/09 06:34:45;;;;;;;15.18;7.32;;;;;;;;;;4999718;28;20103;-60
2023/10/09 06:37:34;;;;;;;;;;;;;;;;;;5039685;28;20075;-61
2023/10/09 06:41:23;;;;;;;17.23;6.95;;;;;;;;;;5038210;28;19927;-61
2023/10/09 06:43:15;;;;;;;17.27;7.70;;;;;;;;;;5038178;28;20135;-61
2023/10/09 06:45:45;;;;;;;21.73;7.63;;;;;;;;;;4985313;28;20058;-61
2023/10/09 06:51:03;;;;;;;20.75;8.35;;;;;;;;;;5000884;28;20057;-61
2023/10/09 06:53:58;;;;;;;21.58;8.07;;;;;;;;;;5014097;28;20053;-61
2023/10/09 06:56:56;;;;;;;18.17;6.65;;;;;;;;;;5011274;28;20062;-63
2023/10/09 06:59:17;;;;;;;18.85;6.70;;;;;;;;;;5019727;28;20064;-61
2023/10/09 07:01:45;;;;;;;18.80;8.20;;;;;;;;;;5018230;28;20054;-61
2023/10/09 07:04:18;;;;;;;;;;;;;;;;;;5011188;28;20045;-61
2023/10/09 07:06:52;;;;;;;18.35;6.70;;;;;;;;;;5018647;28;19925;-61
2023/10/09 07:09:21;;;;;;;28.15;10.73;;;;;;;;;;5017936;28;20061;-61
2023/10/09 07:12:00;;;;;;;;;;;;;;;;;;5025696;28;20041;-61
2023/10/09 07:17:21;;;;;;;21.88;7.43;;;;;;;;;;5010042;28;20142;-61
2023/10/09 07:20:08;;;;;;;16.83;7.03;;;;;;;;;;5036077;28;20056;-61
2023/10/09 07:22:52;;;;;;;18.83;7.22;;;;;;;;;;5038761;28;20036;-61
2023/10/09 07:25:40;;;;;;;21.63;7.32;;;;;;;;;;5025474;28;20068;-61
2023/10/09 07:28:29;;;;;;;16.55;7.07;;;;;;;;;;5038888;28;20049;-61
2023/10/09 07:30:58;;;;;;;27.25;9.00;;;;;;;;;;5041105;28;20059;-61
2023/10/09 07:33:51;;;;;;;24.10;10.48;;;;;;;;;;5042118;28;20049;-63
2023/10/09 07:36:29;;;;;;;22.50;9.05;;;;;;;;;;5017692;28;20132;-61
2023/10/09 07:38:59;;;;;;;15.23;7.03;;;;;;;;;;5021985;28;20057;-61
2023/10/09 07:41:37;;;;;;;18.98;7.22;;;;;;;;;;5019869;28;20046;-61
2023/10/09 07:47:13;;;;;;;19.40;6.70;;;;;;;;;;5034557;28;20061;-61
2023/10/09 07:49:39;;;;;;;19.48;6.53;;;;;;;;;;5019110;28;20146;-61
2023/10/09 07:52:06;;;;;;;20.52;6.78;;;;;;;;;;5020959;28;20116;-60
2023/10/09 07:54:36;;;;;;;19.13;7.20;;;;;;;;;;4984706;28;20061;-60
2023/10/09 07:57:15;;;;;;;18.10;8.05;;;;;;;;;;5030368;28;20057;-61
2023/10/09 07:59:54;;;;;;;28.05;8.75;;;;;;;;;;5017022;28;20073;-60
2023/10/09 08:02:31;;;;;;;28.33;9.18;;;;;;;;;;5013907;28;20360;-61
2023/10/09 08:05:03;;;;;;;24.98;8.85;;;;;;;;;;4989645;28;20060;-60
2023/10/09 08:07:34;;;;;;;24.25;8.18;;;;;;;;;;5020223;28;20084;-60
2023/10/09 08:13:19;;;;;;;28.05;8.32;;;;;;;;;;5017785;28;20085;-59
2023/10/09 08:15:52;;;;;;;20.33;8.02;;;;;;;;;;5002909;28;20057;-59
2023/10/09 08:18:27;;;;;;;17.58;8.65;;;;;;;;;;5015607;28;20056;-60
2023/10/09 08:23:48;;;;;;;20.23;7.97;;;;;;;;;;5022897;28;20049;-60
2023/10/09 08:26:29;;;;;;;21.15;7.95;;;;;;;;;;5009754;28;20053;-60
2023/10/09 08:29:15;;;;;;;19.48;8.63;;;;;;;;;;5019809;28;20065;-59
2023/10/09 08:31:56;;;;;;;23.75;8.90;;;;;;;;;;5016261;28;20053;-61
2023/10/09 08:34:25;;;;;;;33.08;10.45;;;;;;;;;;5003981;28;20060;-61
2023/10/09 08:36:53;;;;;;;29.63;9.77;;;;;;;;;;5019726;28;20236;-61
2023/10/09 08:39:26;;;;;;;25.90;10.55;;;;;;;;;;5020814;28;20148;-60
2023/10/09 08:41:53;;;;;;;23.38;8.20;;;;;;;;;;5019433;28;20062;-60
2023/10/09 08:44:22;;;;;;;18.00;7.70;;;;;;;;;;4996889;28;20065;-61
2023/10/09 08:46:51;;;;;;;20.80;7.90;;;;;;;;;;5020545;28;20148;-61
2023/10/09 08:49:18;;;;;;;22.35;8.77;;;;;;;;;;5015804;28;20049;-60
2023/10/09 08:51:48;;;;;;;30.67;9.98;;;;;;;;;;5034801;28;20087;-62
2023/10/09 08:54:17;;;;;;;23.65;9.43;;;;;;;;;;5019192;28;20060;-62
2023/10/09 08:56:50;;;;;;;23.38;10.35;;;;;;;;;;5059790;28;20124;-60
2023/10/09 08:59:19;;;;;;;25.13;8.63;;;;;;;;;;5057033;28;20088;-60
2023/10/09 09:01:49;;;;;;;;;;;;;;;;;;5056931;28;20068;-60
2023/10/09 09:04:39;;;;;;;19.50;7.38;;;;;;;;;;5009497;28;19964;-60
2023/10/09 09:07:23;;;;;;;29.13;7.65;;;;;;;;;;5017226;28;20223;-60
2023/10/09 09:09:56;;;;;;;19.20;7.15;;;;;;;;;;5017353;28;20055;-60
2023/10/09 09:12:24;;;;;;;19.77;7.13;;;;;;;;;;5011373;28;20060;-60
2023/10/09 09:14:52;;;;;;;17.00;7.73;;;;;;;;;;5006784;28;20211;-59
2023/10/09 09:17:29;;;;;;;21.23;7.68;;;;;;;;;;4998943;28;20061;-59
2023/10/09 09:19:57;;;;;;;24.60;8.85;;;;;;;;;;5000658;28;20073;-60
2023/10/09 09:22:26;;;;;;;21.58;6.75;;;;;;;;;;4992971;28;20061;-61
2023/10/09 09:25:03;;;;;;;23.27;7.95;;;;;;;;;;4992734;28;20053;-59
2023/10/09 09:27:49;;;;;;;17.52;7.65;;;;;;;;;;5015569;28;20187;-60
2023/10/09 09:30:32;;;;;;;19.67;7.00;;;;;;;;;;5013795;28;20049;-60
2023/10/09 09:33:20;;;;;;;20.23;7.45;;;;;;;;;;5015639;28;20081;-59
2023/10/09 09:36:02;;;;;;;17.20;6.83;;;;;;;;;;5013216;28;20059;-60
2023/10/09 09:38:41;;;;;;;20.98;6.78;;;;;;;;;;5009442;28;20065;-61
2023/10/09 09:41:09;;;;;;;28.33;8.63;;;;;;;;;;5014145;28;20053;-60
2023/10/09 09:43:40;;;;;;;22.92;7.65;;;;;;;;;;5016705;28;20049;-61
2023/10/09 09:46:08;;;;;;;23.58;8.27;;;;;;;;;;5011520;28;20060;-60
2023/10/09 09:48:44;;;;;;;20.83;7.20;;;;;;;;;;5009840;28;20049;-61
2023/10/09 09:51:15;;;;;;;25.13;7.63;;;;;;;;;;5051134;28;20091;-60
2023/10/09 09:53:47;;;;;;;18.67;6.35;;;;;;;;;;5032336;28;20061;-60
2023/10/09 09:56:21;;;;;;;19.02;6.40;;;;;;;;;;5048718;28;20061;-60
2023/10/09 09:58:53;;;;;;;16.33;6.38;;;;;;;;;;5075013;28;20059;-60
2023/10/09 10:01:24;;;;;;;20.23;6.72;;;;;;;;;;5057387;28;20056;-59
2023/10/09 10:03:57;;;;;;;22.45;6.38;;;;;;;;;;5030437;28;20061;-63
2023/10/09 10:06:35;;;;;;;21.02;7.47;;;;;;;;;;4986771;28;20056;-63
2023/10/09 10:09:02;;;;;;;17.45;6.50;;;;;;;;;;5017935;28;20057;-59
2023/10/09 10:11:46;;;;;;;16.73;5.65;;;;;;;;;;5021235;28;20053;-59
2023/10/09 10:14:21;;;;;;;11.80;5.32;;;;;;;;;;5006170;28;20324;-60
2023/10/09 10:17:16;;;;;;;14.85;5.10;;;;;;;;;;5031616;28;20057;-59
2023/10/09 10:20:14;;;;;;;13.82;5.38;;;;;;;;;;5015227;28;20062;-60
2023/10/09 10:22:47;;;;;;;15.02;6.20;;;;;;;;;;5016111;28;20066;-60
2023/10/09 10:25:35;;;;;;;19.17;6.10;;;;;;;;;;5004995;28;20149;-60
2023/10/09 10:28:28;;;;;;;15.80;5.20;;;;;;;;;;5020357;28;20131;-62
2023/10/09 10:30:55;;;;;;;18.02;5.57;;;;;;;;;;5021339;28;20056;-61
2023/10/09 10:33:24;;;;;;;16.08;5.25;;;;;;;;;;5016841;28;20136;-61
2023/10/09 10:35:54;;;;;;;16.67;5.20;;;;;;;;;;5011121;28;20195;-62
2023/10/09 10:38:44;;;;;;;19.25;6.00;;;;;;;;;;5029887;28;20053;-62
2023/10/09 10:41:17;;;;;;;14.82;5.60;;;;;;;;;;5033170;28;20057;-61
2023/10/09 10:46:41;;;;;;;19.38;5.80;;;;;;;;;;5002072;28;20049;-60
2023/10/09 10:49:21;;;;;;;15.68;6.00;;;;;;;;;;5016144;28;20073;-60
2023/10/09 10:51:49;;;;;;;18.08;6.00;;;;;;;;;;5031337;28;20083;-61
2023/10/09 10:57:28;;;;;;;14.63;5.78;;;;;;;;;;5004508;28;20061;-60
2023/10/09 11:00:12;;;;;;;14.60;5.63;;;;;;;;;;5001263;28;20081;-60
2023/10/09 11:02:40;;;;;;;14.68;5.55;;;;;;;;;;5004767;28;20057;-60
2023/10/09 11:05:23;;;;;;;13.95;5.30;;;;;;;;;;4962220;28;20053;-61
2023/10/09 11:07:56;;;;;;;22.08;5.55;;;;;;;;;;5038334;28;20052;-60
2023/10/09 11:10:28;;;;;;;18.52;5.32;;;;;;;;;;5019549;28;20061;-61
2023/10/09 11:18:47;;;;;;;14.52;5.03;;;;;;;;;;4974755;28;20117;-61
2023/10/09 11:21:32;;;;;;;12.45;4.72;;;;;;;;;;4997709;28;20061;-60
2023/10/09 11:26:56;;;;;;;13.50;4.50;;;;;;;;;;4991094;28;20053;-62
2023/10/09 11:29:29;;;;;;;10.87;3.90;;;;;;;;;;5039038;28;20113;-61
2023/10/09 11:32:05;;;;;;;13.95;4.63;;;;;;;;;;5017790;28;20050;-60
2023/10/09 11:34:34;;;;;;;16.17;4.13;;;;;;;;;;4995900;28;20160;-60
2023/10/09 11:37:03;;;;;;;11.10;4.15;;;;;;;;;;5016416;28;20135;-61
2023/10/09 11:39:34;;;;;;;15.75;4.10;;;;;;;;;;5019026;28;20053;-60
2023/10/09 11:42:04;;;;;;;12.93;3.55;;;;;;;;;;5022073;28;20085;-60
2023/10/09 11:44:44;;;;;;;14.43;3.92;;;;;;;;;;5010354;28;20049;-60
2023/10/09 11:47:24;;;;;;;11.40;5.13;;;;;;;;;;4980841;28;20057;-61
2023/10/09 11:50:10;;;;;;;15.48;5.88;;;;;;;;;;5020175;28;20045;-60
2023/10/09 11:52:38;;;;;;;14.52;4.57;;;;;;;;;;5016124;28;20053;-60
2023/10/09 11:55:16;;;;;;;15.45;4.50;;;;;;;;;;4998205;28;20060;-61
2023/10/09 11:57:44;;;;;;;10.65;3.63;;;;;;;;;;5019091;28;20166;-61
2023/10/09 12:00:28;;;;;;;12.65;3.67;;;;;;;;;;5017742;28;20045;-63
2023/10/09 12:02:55;;;;;;;9.93;3.70;;;;;;;;;;5021577;28;20056;-61
2023/10/09 12:05:27;;;;;;;11.10;3.88;;;;;;;;;;4959053;28;20054;-61
2023/10/09 12:07:59;;;;;;;11.43;3.85;;;;;;;;;;5019880;28;20085;-61
2023/10/09 12:10:26;;;;;;;12.07;3.63;;;;;;;;;;5012140;28;20116;-61
2023/10/09 12:12:57;;;;;;;11.63;3.53;;;;;;;;;;5031803;28;20099;-60
2023/10/09 12:15:25;;;;;;;10.35;3.53;;;;;;;;;;5003068;28;20084;-60
2023/10/09 12:17:55;;;;;;;9.50;3.83;;;;;;;;;;5027398;28;20156;-61
2023/10/09 12:20:35;;;;;;;13.65;4.10;;;;;;;;;;5012338;28;20063;-61
2023/10/09 12:23:04;;;;;;;11.93;3.67;;;;;;;;;;5022243;28;20060;-60
2023/10/09 12:25:32;;;;;;;14.18;4.05;;;;;;;;;;5015408;28;20110;-60
2023/10/09 12:28:03;;;;;;;13.35;3.95;;;;;;;;;;5038202;28;20084;-60
2023/10/09 12:30:30;;;;;;;12.20;3.42;;;;;;;;;;5036489;28;20281;-60
2023/10/09 12:33:02;;;;;;;16.73;3.65;;;;;;;;;;5041197;28;20088;-60
2023/10/09 12:35:33;;;;;;;16.38;4.28;;;;;;;;;;5001651;28;20174;-60
2023/10/09 12:38:08;;;;;;;13.40;3.88;;;;;;;;;;5011294;28;20087;-60
2023/10/09 12:40:41;;;;;;;11.82;3.33;;;;;;;;;;5043345;28;20057;-60
2023/10/09 12:43:27;;;;;;;13.57;4.25;;;;;;;;;;5051312;28;20132;-60
2023/10/09 12:45:57;;;;;;;10.77;3.50;;;;;;;;;;5005706;28;20053;-62
2023/10/09 12:48:27;;;;;;;10.50;3.67;;;;;;;;;;5017355;28;20061;-63
2023/10/09 12:50:56;;;;;;;10.05;3.60;;;;;;;;;;5016725;28;20140;-59
2023/10/09 12:53:28;;;;;;;13.38;3.92;;;;;;;;;;5016174;28;20077;-60
2023/10/09 12:55:56;;;;;;;15.60;3.75;;;;;;;;;;5010100;28;20056;-60
2023/10/09 12:58:26;;;;;;;14.35;3.42;;;;;;;;;;5052169;28;20071;-61
2023/10/09 13:00:54;;;;;;;12.13;3.45;;;;;;;;;;5055584;28;20056;-60
2023/10/09 13:03:21;;;;;;;10.88;3.60;;;;;;;;;;5049161;28;20052;-60
2023/10/09 13:05:56;;;;;;;12.20;4.70;;;;;;;;;;5025776;28;20263;-63
2023/10/09 13:08:31;;;;;;;14.40;4.97;;;;;;;;;;5037547;28;20068;-60
2023/10/09 13:11:04;;;;;;;12.48;3.42;;;;;;;;;;5037269;28;20103;-60
2023/10/09 13:13:41;;;;;;;12.25;3.97;;;;;;;;;;5018532;28;20053;-60
2023/10/09 13:16:13;;;;;;;12.23;3.70;;;;;;;;;;5008255;28;20138;-59
2023/10/09 13:18:49;;;;;;;9.13;3.90;;;;;;;;;;5024318;28;20061;-61
2023/10/09 13:21:20;;;;;;;11.48;3.35;;;;;;;;;;5021951;28;20061;-61
2023/10/09 13:23:55;;;;;;;9.38;2.90;;;;;;;;;;5038770;28;20075;-61
2023/10/09 13:26:27;;;;;;;15.35;3.28;;;;;;;;;;4964577;28;20048;-62
2023/10/09 13:28:58;;;;;;;15.13;4.15;;;;;;;;;;5056006;28;20052;-61
2023/10/09 13:31:31;;;;;;;10.82;3.47;;;;;;;;;;5028968;28;20048;-61
2023/10/09 13:34:02;;;;;;;15.05;3.53;;;;;;;;;;5054028;28;20061;-61
2023/10/09 13:36:33;;;;;;;12.52;3.70;;;;;;;;;;5004883;28;20056;-60
2023/10/09 13:39:19;;;;;;;13.15;3.80;;;;;;;;;;5060930;28;20060;-61
2023/10/09 13:41:47;;;;;;;12.20;3.45;;;;;;;;;;5059457;28;20064;-61
2023/10/09 13:44:15;;;;;;;8.20;3.28;;;;;;;;;;5040072;28;20141;-60
2023/10/09 13:46:45;;;;;;;;;;;;;;;;;;5004811;28;20060;-60
2023/10/09 13:49:13;;;;;;;10.98;3.55;;;;;;;;;;5053139;28;20068;-61
2023/10/09 13:51:43;;;;;;;8.82;3.50;;;;;;;;;;5036177;28;20064;-60
2023/10/09 13:54:20;;;;;;;12.68;3.60;;;;;;;;;;5024092;28;20161;-61
2023/10/09 13:56:47;;;;;;;16.45;3.97;;;;;;;;;;5007828;28;20052;-60
2023/10/09 13:59:17;;;;;;;10.07;3.53;;;;;;;;;;5016678;28;20053;-60
2023/10/09 14:01:47;;;;;;;11.95;3.30;;;;;;;;;;5024229;28;20045;-60
2023/10/09 14:04:18;;;;;;;11.40;3.33;;;;;;;;;;5032492;28;20107;-59
2023/10/09 14:06:47;;;;;;;13.90;3.42;;;;;;;;;;5034167;28;20068;-60
2023/10/09 14:09:27;;;;;;;13.57;3.22;;;;;;;;;;5034839;28;20064;-60
2023/10/09 14:12:05;;;;;;;9.77;3.33;;;;;;;;;;5036473;28;20053;-61
2023/10/09 14:14:42;;;;;;;16.02;3.08;;;;;;;;;;5029109;28;20145;-60
2023/10/09 14:17:22;;;;;;;11.00;3.20;;;;;;;;;;5012565;28;20060;-60
2023/10/09 14:19:51;;;;;;;9.82;2.78;;;;;;;;;;5036070;28;20171;-59
2023/10/09 14:22:18;;;;;;;11.38;3.35;;;;;;;;;;5037731;28;20106;-60
2023/10/09 14:24:55;;;;;;;11.60;3.38;;;;;;;;;;5048413;28;20083;-60
2023/10/09 14:27:25;;;;;;;11.68;3.80;;;;;;;;;;5023432;28;20049;-60
2023/10/09 14:29:56;;;;;;;8.90;3.40;;;;;;;;;;5017428;28;20075;-60
2023/10/09 14:32:28;;;;;;;14.68;3.22;;;;;;;;;;5049600;28;20048;-61
2023/10/09 14:35:00;;;;;;;10.63;3.30;;;;;;;;;;5038608;28;20072;-60
2023/10/09 14:37:27;;;;;;;15.07;3.53;;;;;;;;;;5038869;28;20060;-61
2023/10/09 14:39:55;;;;;;;10.23;4.15;;;;;;;;;;5039918;28;20060;-60
2023/10/09 14:42:27;;;;;;;12.13;3.53;;;;;;;;;;5033612;28;20061;-61
2023/10/09 14:44:56;;;;;;;10.30;3.78;;;;;;;;;;5038922;28;20080;-59
2023/10/09 14:47:23;;;;;;;8.40;2.53;;;;;;;;;;5052015;28;20071;-60
2023/10/09 14:49:49;;;;;;;11.68;3.08;;;;;;;;;;5020171;28;20140;-60
2023/10/09 14:52:20;;;;;;;14.80;3.05;;;;;;;;;;5018521;28;20069;-60
2023/10/09 14:54:50;;;;;;;15.45;3.08;;;;;;;;;;5040134;28;20061;-61
2023/10/09 14:57:16;;;;;;;12.50;3.22;;;;;;;;;;5037394;28;20079;-60
2023/10/09 14:59:46;;;;;;;6.38;2.58;;;;;;;;;;5062037;28;20056;-60
2023/10/09 15:02:15;;;;;;;8.60;2.90;;;;;;;;;;5060010;28;20052;-60
2023/10/09 15:04:42;;;;;;;7.82;2.97;;;;;;;;;;5049139;28;20053;-60
2023/10/09 15:07:09;;;;;;;11.88;3.40;;;;;;;;;;4992970;28;20070;-60
2023/10/09 15:09:36;;;;;;;12.57;2.80;;;;;;;;;;5019569;28;20212;-60
2023/10/09 15:12:06;;;;;;;15.23;3.60;;;;;;;;;;5022584;28;20053;-61
2023/10/09 15:14:33;;;;;;;19.15;4.30;;;;;;;;;;5012556;28;20053;-60
2023/10/09 15:17:03;;;;;;;19.15;6.80;;;;;;;;;;5030514;28;20060;-61
2023/10/09 15:19:31;;;;;;;13.85;4.00;;;;;;;;;;5037296;28;20064;-60
2023/10/09 15:21:59;;;;;;;12.75;3.20;;;;;;;;;;5053810;28;20075;-62
2023/10/09 15:24:27;;;;;;;8.50;3.30;;;;;;;;;;5005216;28;20076;-62
2023/10/09 15:26:58;;;;;;;13.02;3.05;;;;;;;;;;5004432;28;20057;-60
2023/10/09 15:29:28;;;;;;;13.18;3.42;;;;;;;;;;5024213;28;20057;-61
2023/10/09 15:31:55;;;;;;;10.90;3.83;;;;;;;;;;5019630;28;20061;-60
2023/10/09 15:34:24;;;;;;;17.95;4.18;;;;;;;;;;5017214;28;20053;-62
2023/10/09 15:36:53;;;;;;;13.80;3.35;;;;;;;;;;4999178;28;20068;-61
2023/10/09 15:39:20;;;;;;;14.02;3.42;;;;;;;;;;5032866;28;20060;-61
2023/10/09 15:41:46;;;;;;;15.00;3.63;;;;;;;;;;5015757;28;20096;-60
2023/10/09 15:44:14;;;;;;;13.38;3.05;;;;;;;;;;5018057;28;20053;-61
2023/10/09 15:46:45;;;;;;;10.38;3.05;;;;;;;;;;5005197;28;20048;-60
2023/10/09 15:49:13;;;;;;;14.90;4.05;;;;;;;;;;5028435;28;20045;-60
2023/10/09 15:51:39;;;;;;;20.27;3.50;;;;;;;;;;5035257;28;20060;-60
2023/10/09 15:54:11;;;;;;;10.98;3.38;;;;;;;;;;5029360;28;20361;-60
2023/10/09 15:56:41;;;;;;;10.07;3.22;;;;;;;;;;5025166;28;20049;-61
2023/10/09 15:59:11;;;;;;;9.75;3.80;;;;;;;;;;5037647;28;20080;-60
2023/10/09 16:01:40;;;;;;;11.80;3.22;;;;;;;;;;5026772;28;20061;-62
2023/10/09 16:04:10;;;;;;;11.50;3.30;;;;;;;;;;5035630;28;20049;-63
2023/10/09 16:06:39;;;;;;;14.30;3.70;;;;;;;;;;5024416;28;20045;-63
2023/10/09 16:09:11;;;;;;;9.75;3.40;;;;;;;;;;5029383;28;20061;-62
2023/10/09 16:11:39;;;;;;;14.98;4.50;;;;;;;;;;5036662;28;20057;-63